Aérodrome :
LOGIN :

S'inscrire | Disclaimer

   EN    FR    IT 

 










Légende :    VFR   VFR Marginal   IFR   IFR Intensif   IFR Très Intensif
Visi : 
Plafond : 
>= 8 km
>= 3000ft
5 à 8 km
1000 à 3000 ft
1500m à 5 km
500 à 1000 ft
800 à 1500m
200 à 500 ft
< 800m
< 200 ft
Symboles :   Orages  Brouillard  Fortes neiges  Fortes précipitations  Vent > 20 kt
SIGMETs :   Divers  Orages  Givrage  Turbulence  Onde Orograph.  Cendres Volcan.






- Altitude de l'aérodrome : 226 ft
- Code IATA : BEX


EGUB - RAF Benson

DERNIER METAR :
  • 231320Z 10008KT 9999 FEW012 SCT050 BKN100 13/10 Q1011 TEMPO SCT012 RMK BLU TEMPO GRN

METARs EXPIRÉS :
  • 231250Z 10007KT CAVOK 14/11 Q1011 TEMPO SCT012 RMK BLU TEMPO GRN
  • 231220Z 11010KT 9000 HZ FEW012 SCT070 BKN110 13/10 Q1012 TEMPO SCT012 RMK BLU TEMPO GRN
  • 231150Z 11010KT 9000 HZ FEW012 BKN150 13/10 Q1013 TEMPO SCT012 RMK BLU TEMPO GRN
  • 231120Z 10004KT 8000 HZ SCT012 BKN150 12/11 Q1013 TEMPO FEW012 SCT020 RMK GRN TEMPO WHT
  • 231105Z 29003KT 8000 BR SCT012 SCT090 BKN150 10/10 Q1014 TEMPO FEW012 SCT022 RMK GRN TEMPO WHT
  • 231050Z 31001KT 8000 BR FEW012 SCT090 BKN150 10/10 Q1014 TEMPO SCT012 BLU TEMPO GRN

TAF AMD TAF EGUB
Valide du 23 à 12h jusqu'au 24 à 06h UTC


231113Z 2312/2406 12004KT 9999 FEW012
TEMPO 2312/2318 SCT012
PROB30
TEMPO 2315/2318 7000 -RA
BECMG 2318/2320 BKN008
TEMPO 2318/2402 4000 RADZ BKN004
PROB40
TEMPO 2322/2406 2000 BR BKN002
PROB30 2402/2406 0500 FG BKN000
ATIS : +44 1491-837766 (x7524)



MET'MAP, la Météo Aéronautique d'un coup d'oeil ! - Copyright ORBIFLY Décembre 2007 - Disclaimer

ORBIFLY MET'MAP TEAM :

Programmation & Développement : Alexandra Zaïnal
Conception & Développement : Baudouin d'Aumeries
Co-Programmation & Développement : Marc-Olivier Méhu
Soutien technique & logistique : Manuel Goepfert

Contact : metmap@orbifly.com




SOURCES & CREDITS :

   NOAA